Airfield :
LOGIN :

Register | Disclaimer

   EN    FR    IT 

 










Legend :    VFR   Marginal VFR   IFR   Intensive IFR   Very Intensive IFR
Visi :
Ceiling :
>= 8 km
>= 3000ft
5 to 8 km
1000 to 3000 ft
1500m to 5 km
500 to 1000 ft
800 to 1500m
200 to 500 ft
< 800m
< 200 ft
Symbols :   Thunderstorms  Fog  Heavy snow  Heavy precipitations  Wind > 20 kt
SIGMETs :     Misc.  Thunderstorms  Icing  Turbulence  Mountain Waves  Volcanic Ashes







- Airport Elevation : 13 ft
- IATA code : CAG


LIEE - Cagliari Elmas

CURRENT METAR :
  • 151220Z 33005KT 250V060 9999 FEW025 32/16 Q1012

EXPIRED METARs :
  • 151150Z 35007KT 300V100 9999 FEW025 32/15 Q1012
  • 151120Z 31007KT 260V010 9999 FEW025 30/17 Q1012
  • 151050Z 36007KT 320V040 9999 FEW025 30/18 Q1012
  • 151020Z 35006KT 270V050 9999 FEW025 29/18 Q1012
  • 150950Z 36008KT 310V030 9999 FEW025 29/19 Q1013

TAF TAF LIEE
Valid from the 15 at 12:00 until the 16 at 12:00 UTC


151100Z 1512/1612 16010KT 9999 SCT030
TEMPO 1515/1520 TSRA
BECMG 1518/1520 VRB05KT
No reported NOTAMs for that airfield.
1 SIGMET reported for the Roma FIR (LIRR) :
 
Embedded thunderstorms
LIRR SIGMET 7 VALID 151200/151400 LIIB
LIRR ROMA FIR EMBD TS FCST WI N4231 E01325 - N4102 E01012 - N3830 E01209 - N3959 E01546 - N4112 E01508 - N4128 E01419 - N4231 E01325 TOP ABV FL330 STNR NC=



MET'MAP, your aeronautical weather chart ! - Copyright ORBIFLY December 2007 - Disclaimer

ORBIFLY MET'MAP TEAM :

Programming & Development : Alexandra Zaïnal
Concept & Development : Baudouin d'Aumeries
Co-Development & Prog : Marc-Olivier Méhu
Technical & hardware support : Manuel Goepfert

Contact : metmap@orbifly.com




SOURCES & CREDITS :

   NOAA